Time;durP1;ratioP1;P1;durP2;ratioP2;P2;SDS_P1;SDS_P2;PMS_P1;PMS_P2;Temp;Humidity;BMP_temperature;BMP_pressure;BME280_temperature;BME280_humidity;BME280_pressure;Samples;Min_cycle;Max_cycle;Signal;HPM_P1;HPM_P2
2023/09/12 00:00:41;;;;;;;38.53;28.58;;;19.30;99.90;;;;;;5007166;28;20060;-70
2023/09/12 00:03:07;;;;;;;37.20;27.33;;;19.40;99.90;;;;;;5025001;28;20041;-70
2023/09/12 00:05:32;;;;;;;47.47;29.95;;;19.40;99.90;;;;;;5007140;28;20044;-70
2023/09/12 00:07:58;;;;;;;40.60;26.92;;;19.30;99.90;;;;;;5025163;28;20045;-70
2023/09/12 00:10:24;;;;;;;39.08;25.95;;;19.40;99.90;;;;;;5025040;28;20041;-70
2023/09/12 00:12:50;;;;;;;37.78;26.83;;;19.20;99.90;;;;;;5000510;28;20084;-70
2023/09/12 00:15:15;;;;;;;36.42;24.75;;;19.20;99.90;;;;;;5025030;28;20081;-70
2023/09/12 00:17:41;;;;;;;36.45;25.35;;;19.30;99.90;;;;;;5024946;28;20042;-69
2023/09/12 00:20:08;;;;;;;35.20;26.50;;;19.20;99.90;;;;;;5007170;28;20049;-69
2023/09/12 00:22:33;;;;;;;38.72;27.58;;;19.40;99.90;;;;;;5025348;28;20038;-70
2023/09/12 00:24:59;;;;;;;40.00;27.65;;;19.30;99.90;;;;;;5007185;28;20041;-69
2023/09/12 00:27:24;;;;;;;37.47;26.70;;;19.20;99.90;;;;;;5024428;28;20053;-70
2023/09/12 00:29:50;;;;;;;42.38;28.95;;;19.30;99.90;;;;;;5007038;28;20499;-69
2023/09/12 00:32:15;;;;;;;37.70;28.50;;;19.10;99.90;;;;;;5024809;28;20124;-69
2023/09/12 00:34:41;;;;;;;37.25;27.10;;;19.30;99.90;;;;;;5007159;28;20053;-69
2023/09/12 00:37:06;;;;;;;30.73;22.15;;;19.20;99.90;;;;;;5005331;28;20037;-69
2023/09/12 00:39:32;;;;;;;29.92;22.95;;;19.10;99.90;;;;;;5024897;28;20091;-69
2023/09/12 00:41:57;;;;;;;34.00;24.02;;;19.20;99.90;;;;;;5006761;28;20173;-69
2023/09/12 00:44:23;;;;;;;72.32;22.08;;;19.20;99.90;;;;;;5024971;28;20108;-69
2023/09/12 00:46:50;;;;;;;26.00;17.17;;;19.30;99.90;;;;;;5006858;28;20134;-69
2023/09/12 00:49:17;;;;;;;31.17;21.08;;;19.20;99.90;;;;;;5024671;28;20037;-69
2023/09/12 00:51:45;;;;;;;27.15;20.63;;;19.20;99.90;;;;;;5024535;28;20869;-69
2023/09/12 00:54:11;;;;;;;26.25;20.90;;;18.90;99.90;;;;;;5022654;28;20048;-69
2023/09/12 00:56:37;;;;;;;33.58;23.65;;;19.20;99.90;;;;;;5024222;28;20076;-70
2023/09/12 00:59:04;;;;;;;30.25;23.88;;;19.00;99.90;;;;;;5006513;28;20112;-69
2023/09/12 01:01:32;;;;;;;40.25;27.83;;;18.90;99.90;;;;;;5024509;28;20045;-69
2023/09/12 01:03:58;;;;;;;208.43;29.95;;;18.80;99.90;;;;;;5023930;28;20802;-69
2023/09/12 01:06:28;;;;;;;28.40;21.60;;;18.90;99.90;;;;;;5023659;28;20037;-69
2023/09/12 01:08:55;;;;;;;29.60;22.75;;;19.00;99.90;;;;;;5027390;28;20045;-70
2023/09/12 01:11:21;;;;;;;27.65;21.35;;;19.00;99.90;;;;;;4993280;28;20513;-69
2023/09/12 01:13:46;;;;;;;115.13;27.23;;;19.10;99.90;;;;;;5027553;28;20068;-69
2023/09/12 01:16:12;;;;;;;76.30;25.35;;;18.90;99.90;;;;;;5027877;28;20484;-70
2023/09/12 01:18:38;;;;;;;35.13;25.35;;;;;;;;;;5009707;28;20056;-69
2023/09/12 01:21:26;;;;;;;40.42;25.52;;;19.00;99.90;;;;;;5009632;28;20061;-69
2023/09/12 01:24:17;;;;;;;36.28;25.83;;;19.00;99.90;;;;;;5027366;28;20048;-69
2023/09/12 01:27:21;;;;;;;42.70;28.30;;;18.70;99.90;;;;;;5013830;28;20061;-69
2023/09/12 01:29:51;;;;;;;40.00;26.80;;;18.60;99.90;;;;;;5028085;28;20049;-69
2023/09/12 01:32:18;;;;;;;39.83;28.98;;;18.60;99.90;;;;;;5009286;28;20557;-69
2023/09/12 01:34:43;;;;;;;39.47;27.98;;;18.50;99.90;;;;;;5009705;28;20568;-69
2023/09/12 01:37:09;;;;;;;47.47;29.25;;;18.50;99.90;;;;;;5009663;28;20040;-69
2023/09/12 01:39:35;;;;;;;47.65;30.17;;;18.50;99.90;;;;;;5027424;28;20064;-69
2023/09/12 01:42:02;;;;;;;44.50;29.98;;;18.40;99.90;;;;;;5009131;28;20119;-69
2023/09/12 01:44:28;;;;;;;40.10;28.52;;;18.40;99.90;;;;;;5027001;28;20072;-69
2023/09/12 01:46:57;;;;;;;45.75;30.35;;;18.30;99.90;;;;;;5026876;28;20111;-69
2023/09/12 01:49:24;;;;;;;48.50;30.52;;;18.60;99.90;;;;;;5027027;28;20116;-69
2023/09/12 01:51:51;;;;;;;53.28;30.98;;;18.50;99.90;;;;;;5008958;28;20049;-69
2023/09/12 01:54:17;;;;;;;57.53;35.25;;;;;;;;;;5009028;28;20111;-69
2023/09/12 01:56:44;;;;;;;48.83;32.53;;;;;;;;;;5027196;28;20045;-69
2023/09/12 01:59:09;;;;;;;52.70;32.63;;;;;;;;;;5026657;28;20500;-69
2023/09/12 02:01:35;;;;;;;44.58;30.98;;;18.50;99.90;;;;;;5008738;28;20053;-69
2023/09/12 02:04:01;;;;;;;47.53;29.80;;;;;;;;;;5008944;28;20774;-69
2023/09/12 02:06:27;;;;;;;36.97;25.92;;;;;;;;;;5026501;28;20055;-69
2023/09/12 02:08:53;;;;;;;34.13;24.85;;;18.50;99.90;;;;;;5027076;28;20909;-70
2023/09/12 02:11:19;;;;;;;36.20;26.13;;;;;;;;;;5027024;28;20137;-69
2023/09/12 02:13:45;;;;;;;40.00;26.10;;;;;;;;;;5008512;28;20152;-69
2023/09/12 02:16:11;;;;;;;46.65;29.98;;;;;;;;;;5008687;28;20038;-69
2023/09/12 02:18:37;;;;;;;49.22;33.05;;;;;;;;;;5008258;28;20041;-69
2023/09/12 02:21:03;;;;;;;57.13;34.55;;;;;;;;;;5007836;28;20049;-69
2023/09/12 02:23:28;;;;;;;56.90;34.53;;;18.80;99.90;;;;;;5026520;28;20214;-69
2023/09/12 02:25:54;;;;;;;60.20;36.25;;;;;;;;;;5026718;28;20041;-70
2023/09/12 02:28:20;;;;;;;56.28;33.13;;;;;;;;;;5026695;28;20048;-69
2023/09/12 02:30:46;;;;;;;59.67;34.10;;;;;;;;;;5008313;28;20144;-69
2023/09/12 02:33:12;;;;;;;58.67;35.80;;;;;;;;;;5008171;28;20045;-69
2023/09/12 02:35:38;;;;;;;57.88;36.17;;;;;;;;;;5026743;28;20065;-69
2023/09/12 02:38:03;;;;;;;58.95;35.03;;;18.80;99.90;;;;;;5023471;28;20034;-69
2023/09/12 02:40:29;;;;;;;60.25;37.40;;;;;;;;;;5026269;28;20650;-69
2023/09/12 02:42:55;;;;;;;69.35;37.33;;;18.50;99.90;;;;;;5008032;28;20050;-69
2023/09/12 02:45:21;;;;;;;69.65;39.10;;;;;;;;;;5026136;28;20692;-69
2023/09/12 02:47:47;;;;;;;72.50;37.50;;;;;;;;;;5008111;28;20049;-69
2023/09/12 02:50:13;;;;;;;67.47;39.08;;;;;;;;;;5025906;28;20567;-69
2023/09/12 02:52:38;;;;;;;69.75;38.83;;;18.70;99.90;;;;;;5023855;28;20041;-69
2023/09/12 02:55:04;;;;;;;61.67;35.28;;;18.40;99.90;;;;;;5026353;28;20045;-70
2023/09/12 02:57:30;;;;;;;58.78;33.92;;;18.50;99.90;;;;;;5025470;28;20045;-70
2023/09/12 02:59:55;;;;;;;54.45;32.92;;;18.50;99.90;;;;;;5026198;28;20404;-69
2023/09/12 03:02:21;;;;;;;52.00;31.52;;;18.50;99.90;;;;;;5025753;28;20590;-69
2023/09/12 03:04:46;;;;;;;51.95;31.15;;;18.30;99.90;;;;;;5025499;28;20033;-69
2023/09/12 03:07:12;;;;;;;55.80;32.38;;;;;;;;;;5025837;28;20042;-70
2023/09/12 03:09:38;;;;;;;50.35;30.48;;;;;;;;;;5007771;28;20068;-70
2023/09/12 03:12:05;;;;;;;48.42;29.63;;;18.50;99.90;;;;;;5008039;28;20424;-70
2023/09/12 03:14:30;;;;;;;45.33;29.67;;;18.40;99.90;;;;;;5007567;28;20489;-70
2023/09/12 03:16:56;;;;;;;46.55;30.08;;;18.40;99.90;;;;;;5025802;28;20041;-69
2023/09/12 03:19:21;;;;;;;44.40;28.98;;;18.40;99.90;;;;;;5026023;28;20045;-69
2023/09/12 03:21:47;;;;;;;42.45;27.70;;;18.20;99.90;;;;;;5007798;28;20045;-70
2023/09/12 03:24:13;;;;;;;46.58;29.67;;;;;;;;;;5007760;28;20041;-69
2023/09/12 03:26:39;;;;;;;41.60;27.40;;;18.30;99.90;;;;;;5007091;28;20061;-69
2023/09/12 03:29:05;;;;;;;48.15;30.45;;;18.20;99.90;;;;;;5025316;28;20046;-70
2023/09/12 03:31:31;;;;;;;45.08;30.85;;;18.20;99.90;;;;;;5024799;28;20504;-69
2023/09/12 03:33:57;;;;;;;45.67;27.73;;;;;;;;;;5024646;28;20582;-69
2023/09/12 03:36:22;;;;;;;44.00;27.75;;;18.10;99.90;;;;;;5025114;28;20037;-70
2023/09/12 03:38:48;;;;;;;43.40;27.92;;;18.30;99.90;;;;;;5025054;28;20809;-70
2023/09/12 03:41:13;;;;;;;40.65;27.58;;;18.30;99.90;;;;;;5025112;28;20512;-69
2023/09/12 03:43:39;;;;;;;39.50;26.20;;;18.30;99.90;;;;;;5006586;28;20049;-70
2023/09/12 03:46:04;;;;;;;37.83;26.00;;;18.20;99.90;;;;;;5007271;28;20041;-70
2023/09/12 03:48:31;;;;;;;142.73;36.72;;;;;;;;;;5006978;28;20068;-69
2023/09/12 03:50:57;;;;;;;63.00;36.78;;;18.20;99.90;;;;;;5024692;28;20504;-69
2023/09/12 03:53:23;;;;;;;64.38;37.55;;;;;;;;;;5024752;28;20084;-69
2023/09/12 03:55:49;;;;;;;64.78;37.33;;;;;;;;;;5006997;28;20108;-70
2023/09/12 03:58:15;;;;;;;53.97;33.80;;;18.20;99.90;;;;;;5025047;28;20481;-69
2023/09/12 04:00:40;;;;;;;53.95;33.17;;;18.20;99.90;;;;;;5024802;28;20045;-69
2023/09/12 04:03:06;;;;;;;46.30;28.42;;;18.30;99.90;;;;;;5007415;28;20042;-69
2023/09/12 04:05:31;;;;;;;53.40;28.23;;;18.20;99.90;;;;;;5025052;28;20073;-70
2023/09/12 04:07:57;;;;;;;57.58;33.90;;;18.30;99.90;;;;;;5007223;28;20107;-69
2023/09/12 04:10:23;;;;;;;55.67;33.55;;;18.20;99.90;;;;;;5007213;28;20041;-69
2023/09/12 04:12:48;;;;;;;60.17;36.80;;;;;;;;;;5024807;28;20558;-69
2023/09/12 04:15:14;;;;;;;57.50;35.15;;;;;;;;;;5006952;28;20565;-69
2023/09/12 04:17:40;;;;;;;94.22;36.45;;;18.10;99.90;;;;;;5024534;28;20124;-70
2023/09/12 04:20:06;;;;;;;285.52;37.13;;;18.20;99.90;;;;;;5025029;28;20038;-69
2023/09/12 04:22:32;;;;;;;228.77;33.67;;;;;;;;;;5006705;28;20076;-69
2023/09/12 04:24:57;;;;;;;138.07;34.55;;;17.90;99.90;;;;;;5024634;28;20041;-69
2023/09/12 04:27:23;;;;;;;92.53;30.10;;;;;;;;;;5006421;28;20065;-69
2023/09/12 04:29:49;;;;;;;111.40;33.75;;;17.90;99.90;;;;;;5006513;28;20037;-69
2023/09/12 04:32:16;;;;;;;111.50;34.45;;;17.90;99.90;;;;;;5024243;28;20049;-69
2023/09/12 04:34:43;;;;;;;110.78;33.13;;;17.80;99.90;;;;;;5024260;28;20042;-69
2023/09/12 04:37:09;;;;;;;98.57;34.55;;;;;;;;;;5024469;28;20112;-69
2023/09/12 04:39:35;;;;;;;120.40;35.20;;;;;;;;;;5006152;28;20829;-69
2023/09/12 04:42:01;;;;;;;110.40;33.63;;;;;;;;;;5024529;28;20045;-69
2023/09/12 04:44:27;;;;;;;157.15;37.58;;;;;;;;;;5009749;28;20049;-69
2023/09/12 04:46:53;;;;;;;126.50;34.90;;;;;;;;;;5010259;28;20049;-70
2023/09/12 04:49:18;;;;;;;161.90;34.38;;;17.60;99.90;;;;;;5009982;28;20052;-70
2023/09/12 04:51:44;;;;;;;141.13;35.20;;;;;;;;;;5010455;28;20420;-69
2023/09/12 04:54:10;;;;;;;174.80;37.03;;;;;;;;;;5027609;28;20504;-70
2023/09/12 04:56:36;;;;;;;148.05;36.97;;;;;;;;;;5010284;28;20456;-69
2023/09/12 04:59:02;;;;;;;153.20;36.95;;;;;;;;;;5009580;28;20124;-69
2023/09/12 05:01:28;;;;;;;191.48;39.95;;;17.80;99.90;;;;;;5028233;28;20049;-70
2023/09/12 05:03:53;;;;;;;181.23;38.60;;;17.80;99.90;;;;;;5009652;28;20052;-69
2023/09/12 05:06:19;;;;;;;163.30;38.90;;;;;;;;;;5027972;28;20041;-69
2023/09/12 05:08:45;;;;;;;149.93;39.53;;;;;;;;;;5009905;28;20049;-69
2023/09/12 05:11:11;;;;;;;131.07;39.55;;;;;;;;;;5027433;28;20046;-69
2023/09/12 05:13:37;;;;;;;113.53;35.97;;;;;;;;;;5027572;28;20077;-70
2023/09/12 05:16:03;;;;;;;116.32;37.10;;;17.80;99.90;;;;;;5009943;28;20103;-69
2023/09/12 05:18:28;;;;;;;112.50;37.80;;;17.80;99.90;;;;;;5027957;28;20037;-69
2023/09/12 05:20:54;;;;;;;130.98;39.08;;;;;;;;;;5027762;28;20500;-69
2023/09/12 05:23:20;;;;;;;128.77;39.75;;;;;;;;;;5027776;28;20084;-69
2023/09/12 05:25:46;;;;;;;117.43;37.50;;;;;;;;;;5027801;28;20081;-69
2023/09/12 05:28:15;;;;;;;124.78;41.95;;;;;;;;;;5009711;28;20058;-69
2023/09/12 05:30:42;;;;;;;58.15;32.95;;;17.70;99.90;;;;;;5009578;28;20077;-69
2023/09/12 05:33:08;;;;;;;64.22;33.58;;;;;;;;;;5009518;28;20049;-69
2023/09/12 05:35:33;;;;;;;86.95;37.13;;;17.60;99.90;;;;;;5027761;28;20381;-69
2023/09/12 05:37:59;;;;;;;114.55;38.65;;;17.80;99.90;;;;;;5027600;28;20047;-69
2023/09/12 05:40:24;;;;;;;89.28;37.00;;;17.80;99.90;;;;;;5027650;28;20535;-70
2023/09/12 05:42:50;;;;;;;78.57;37.08;;;;;;;;;;5027488;28;20755;-69
2023/09/12 05:45:16;;;;;;;88.45;39.75;;;;;;;;;;5027080;28;20038;-69
2023/09/12 05:47:42;;;;;;;83.68;38.83;;;;;;;;;;5027597;28;20048;-69
2023/09/12 05:50:08;;;;;;;88.18;40.05;;;;;;;;;;5027268;28;20037;-70
2023/09/12 05:52:34;;;;;;;90.75;41.35;;;17.80;99.90;;;;;;5009254;28;20046;-69
2023/09/12 05:54:59;;;;;;;72.75;37.33;;;17.90;99.90;;;;;;5008616;28;20087;-69
2023/09/12 05:57:25;;;;;;;67.82;36.97;;;;;;;;;;5009517;28;20046;-69
2023/09/12 05:59:51;;;;;;;61.50;36.05;;;;;;;;;;5027224;28;20136;-70
2023/09/12 06:02:17;;;;;;;68.03;37.72;;;18.00;99.90;;;;;;5008680;28;20785;-69
2023/09/12 06:04:43;;;;;;;79.75;39.97;;;;;;;;;;5026375;28;20045;-70
2023/09/12 06:07:09;;;;;;;83.18;39.88;;;18.00;99.90;;;;;;5025543;28;20056;-69
2023/09/12 06:09:35;;;;;;;85.50;38.92;;;18.10;99.90;;;;;;5026573;28;20041;-70
2023/09/12 06:12:00;;;;;;;105.47;41.40;;;;;;;;;;5026170;28;20045;-69
2023/09/12 06:14:26;;;;;;;129.77;43.30;;;;;;;;;;5008357;28;20051;-69
2023/09/12 06:16:53;;;;;;;75.20;38.30;;;18.10;99.90;;;;;;5026714;28;20029;-70
2023/09/12 06:19:19;;;;;;;78.43;38.63;;;;;;;;;;5026255;28;20053;-67
2023/09/12 06:21:45;;;;;;;69.22;37.28;;;;;;;;;;5026399;28;20051;-65
2023/09/12 06:24:16;;;;;;;84.63;38.15;;;18.30;99.90;;;;;;5026527;28;20065;-65
2023/09/12 06:26:42;;;;;;;94.47;38.03;;;;;;;;;;5026042;28;20069;-65
2023/09/12 06:29:08;;;;;;;81.03;39.75;;;;;;;;;;5023767;28;20049;-68
2023/09/12 06:31:34;;;;;;;79.65;37.90;;;18.20;99.90;;;;;;5027314;28;20500;-67
2023/09/12 06:34:00;;;;;;;75.47;36.78;;;;;;;;;;5016155;28;20042;-68
2023/09/12 06:36:26;;;;;;;75.85;39.90;;;18.20;99.90;;;;;;5023696;28;20049;-68
2023/09/12 06:38:52;;;;;;;74.97;36.95;;;;;;;;;;5006889;28;20061;-68
2023/09/12 06:41:19;;;;;;;67.70;36.97;;;18.20;99.90;;;;;;5008367;28;20124;-68
2023/09/12 06:43:45;;;;;;;80.68;37.97;;;18.40;99.90;;;;;;5026279;28;20045;-67
2023/09/12 06:46:11;;;;;;;94.68;38.78;;;;;;;;;;5026916;28;20059;-69
2023/09/12 06:48:37;;;;;;;86.43;39.55;;;;;;;;;;5026702;28;20050;-68
2023/09/12 06:51:08;;;;;;;89.55;41.63;;;18.00;99.90;;;;;;5026479;28;20052;-72
2023/09/12 06:53:33;;;;;;;86.82;41.53;;;;;;;;;;5016857;28;20041;-72
2023/09/12 06:55:59;;;;;;;93.80;42.78;;;18.20;99.90;;;;;;5026767;28;20033;-72
2023/09/12 06:58:25;;;;;;;87.65;41.28;;;;;;;;;;5008465;28;20056;-72
2023/09/12 07:00:51;;;;;;;96.28;44.35;;;;;;;;;;5025583;28;20051;-72
2023/09/12 07:03:18;;;;;;;83.88;42.03;;;;;;;;;;5026004;28;20075;-71
2023/09/12 07:05:44;;;;;;;90.07;41.72;;;;;;;;;;5025734;28;20716;-72
2023/09/12 07:08:10;;;;;;;93.75;45.05;;;19.90;99.90;;;;;;5005800;28;20509;-71
2023/09/12 07:10:36;;;;;;;84.57;42.10;;;18.50;99.90;;;;;;5004728;28;20095;-72
2023/09/12 07:13:02;;;;;;;85.22;41.15;;;18.30;99.90;;;;;;5008091;28;20045;-70
2023/09/12 07:15:27;;;;;;;84.70;41.90;;;18.30;99.90;;;;;;5025954;28;20060;-71
2023/09/12 07:17:53;;;;;;;90.03;42.58;;;;;;;;;;5007726;28;20038;-71
2023/09/12 07:20:20;;;;;;;94.75;43.45;;;;;;;;;;5023038;28;20041;-71
2023/09/12 07:22:46;;;;;;;86.30;43.33;;;18.40;99.90;;;;;;5007759;28;20064;-71
2023/09/12 07:25:14;;;;;;;86.50;42.90;;;18.50;99.90;;;;;;5008503;28;20037;-71
2023/09/12 07:27:40;;;;;;;92.75;43.72;;;;;;;;;;5019641;28;20420;-71
2023/09/12 07:30:08;;;;;;;99.38;45.13;;;18.60;99.90;;;;;;5003882;28;20117;-72
2023/09/12 07:32:34;;;;;;;88.25;43.30;;;;;;;;;;5010335;28;20072;-71
2023/09/12 07:35:00;;;;;;;87.72;44.28;;;;;;;;;;5021656;28;20156;-71
2023/09/12 07:37:26;;;;;;;89.18;42.97;;;18.60;99.90;;;;;;5020685;28;20072;-70
2023/09/12 07:39:51;;;;;;;87.53;44.40;;;18.70;99.90;;;;;;5005492;28;20423;-70
2023/09/12 07:42:21;;;;;;;91.13;44.45;;;18.70;99.90;;;;;;5025369;28;20501;-70
2023/09/12 07:44:48;;;;;;;86.05;42.05;;;;;;;;;;5002457;28;20053;-71
2023/09/12 07:47:14;;;;;;;92.85;45.08;;;;;;;;;;5025420;28;20045;-70
2023/09/12 07:49:40;;;;;;;91.93;44.17;;;;;;;;;;5001813;28;20137;-70
2023/09/12 07:52:06;;;;;;;89.05;45.28;;;;;;;;;;5007220;28;20408;-70
2023/09/12 07:54:32;;;;;;;92.28;44.75;;;;;;;;;;5002516;28;20045;-72
2023/09/12 07:56:58;;;;;;;92.88;46.83;;;18.70;99.90;;;;;;4995489;28;20533;-71
2023/09/12 07:59:23;;;;;;;86.88;44.53;;;18.90;99.90;;;;;;5001833;28;20033;-71
2023/09/12 08:01:49;;;;;;;87.00;44.22;;;18.90;99.90;;;;;;5021331;28;20037;-71
2023/09/12 08:04:15;;;;;;;83.78;44.10;;;18.80;99.90;;;;;;5024485;28;20400;-68
2023/09/12 08:06:41;;;;;;;85.97;43.70;;;19.00;99.90;;;;;;5023228;28;20041;-70
2023/09/12 08:09:08;;;;;;;87.80;46.58;;;;;;;;;;5007285;28;20041;-70
2023/09/12 08:11:34;;;;;;;86.97;44.25;;;;;;;;;;5025339;28;20419;-70
2023/09/12 08:14:00;;;;;;;89.10;46.20;;;;;;;;;;5018661;28;20037;-68
2023/09/12 08:16:26;;;;;;;83.63;46.75;;;;;;;;;;5005790;28;20472;-68
2023/09/12 08:18:51;;;;;;;89.72;47.03;;;;;;;;;;5025809;28;20041;-68
2023/09/12 08:21:17;;;;;;;86.60;44.60;;;19.00;99.90;;;;;;5008083;28;20038;-68
2023/09/12 08:23:43;;;;;;;79.78;44.35;;;;;;;;;;5024186;28;20111;-68
2023/09/12 08:26:09;;;;;;;91.07;46.83;;;;;;;;;;5009698;28;20544;-69
2023/09/12 08:28:35;;;;;;;81.68;46.30;;;;;;;;;;5026664;28;20238;-69
2023/09/12 08:31:01;;;;;;;85.28;46.80;;;;;;;;;;5027784;28;20417;-69
2023/09/12 08:33:26;;;;;;;87.40;45.83;;;19.20;99.90;;;;;;5027790;28;20046;-69
2023/09/12 08:35:52;;;;;;;85.57;46.33;;;19.40;99.90;;;;;;5010223;28;20145;-69
2023/09/12 08:38:17;;;;;;;78.50;43.38;;;19.50;99.90;;;;;;5009798;28;20120;-68
2023/09/12 08:40:52;;;;;;;77.65;43.70;;;19.70;99.90;;;;;;5025587;28;20041;-69
2023/09/12 08:43:18;;;;;;;79.75;44.63;;;;;;;;;;5025225;28;20045;-69
2023/09/12 08:45:44;;;;;;;69.97;43.10;;;20.10;99.90;;;;;;5006129;28;20052;-69
2023/09/12 08:48:12;;;;;;;76.47;43.10;;;20.20;99.90;;;;;;5025271;28;20075;-69
2023/09/12 08:50:38;;;;;;;67.72;40.75;;;20.30;99.90;;;;;;5005544;28;20045;-68
2023/09/12 08:53:04;;;;;;;65.53;40.13;;;21.60;99.90;;;;;;5007366;28;20048;-69
2023/09/12 08:55:33;;;;;;;69.93;40.80;;;20.50;99.90;;;;;;5023993;28;20408;-69
2023/09/12 08:57:59;;;;;;;62.03;39.35;;;20.70;99.90;;;;;;5026660;28;20052;-69
2023/09/12 09:00:27;;;;;;;67.00;39.47;;;21.00;99.90;;;;;;4992023;28;20086;-69
2023/09/12 09:02:53;;;;;;;63.08;38.15;;;21.10;99.90;;;;;;5009368;28;20057;-69
2023/09/12 09:05:20;;;;;;;66.20;39.17;;;21.00;99.90;;;;;;5007522;28;20042;-69
2023/09/12 09:07:46;;;;;;;59.95;37.30;;;21.20;99.90;;;;;;5000633;28;20041;-69
2023/09/12 09:10:17;;;;;;;63.10;37.60;;;20.90;99.90;;;;;;5009448;28;20045;-69
2023/09/12 09:12:46;;;;;;;63.05;38.47;;;20.80;99.90;;;;;;5027275;28;20508;-68
2023/09/12 09:15:23;;;;;;;60.55;37.55;;;20.60;99.90;;;;;;5021159;28;20049;-68
2023/09/12 09:17:52;;;;;;;61.97;36.95;;;20.70;99.90;;;;;;5026410;28;20741;-68
2023/09/12 09:20:34;;;;;;;63.83;37.85;;;20.60;99.90;;;;;;5027750;28;20041;-69
2023/09/12 09:23:10;;;;;;;66.80;37.75;;;20.60;99.90;;;;;;5026063;28;20044;-68
2023/09/12 09:25:40;;;;;;;64.72;35.45;;;21.20;99.90;;;;;;5006505;28;20037;-68
2023/09/12 09:28:19;;;;;;;60.22;34.95;;;20.60;99.90;;;;;;5024595;28;20590;-68
2023/09/12 09:30:47;;;;;;;64.93;36.70;;;20.80;99.90;;;;;;5009170;28;20099;-68
2023/09/12 09:33:14;;;;;;;61.03;35.78;;;20.40;99.90;;;;;;5007845;28;20120;-68
2023/09/12 09:35:45;;;;;;;64.57;37.20;;;20.60;99.90;;;;;;5026142;28;20457;-68
2023/09/12 09:38:16;;;;;;;67.47;38.67;;;20.70;99.90;;;;;;5006896;28;20045;-68
2023/09/12 09:40:42;;;;;;;69.20;39.40;;;20.50;99.90;;;;;;5025121;28;20489;-68
2023/09/12 09:43:08;;;;;;;64.97;37.80;;;20.70;99.90;;;;;;5007481;28;20041;-69
2023/09/12 09:45:44;;;;;;;68.88;38.63;;;20.90;99.90;;;;;;5009011;28;20467;-69
2023/09/12 09:48:10;;;;;;;66.97;38.40;;;21.30;99.90;;;;;;5023045;28;20042;-69
2023/09/12 09:50:39;;;;;;;65.82;39.55;;;21.30;99.90;;;;;;5008783;28;20067;-69
2023/09/12 09:53:08;;;;;;;58.00;33.35;;;21.00;99.90;;;;;;5005362;28;20497;-69
2023/09/12 09:55:34;;;;;;;59.65;36.03;;;20.90;99.90;;;;;;5009105;28;20073;-69
2023/09/12 09:57:59;;;;;;;60.17;35.72;;;21.20;99.90;;;;;;5009025;28;21495;-69
2023/09/12 10:00:27;;;;;;;63.58;36.20;;;21.30;99.90;;;;;;5008888;28;20046;-68
2023/09/12 10:02:53;;;;;;;57.28;35.55;;;21.40;99.90;;;;;;5020609;28;20038;-69
2023/09/12 10:05:20;;;;;;;57.38;35.00;;;21.30;99.90;;;;;;5006509;28;20122;-69
2023/09/12 10:07:50;;;;;;;56.50;33.55;;;21.40;99.90;;;;;;4990291;28;20038;-69
2023/09/12 10:10:18;;;;;;;57.47;35.50;;;21.60;99.90;;;;;;5023757;28;20385;-69
2023/09/12 10:12:51;;;;;;;52.15;34.38;;;21.50;99.90;;;;;;5004151;28;20500;-69
2023/09/12 10:15:19;;;;;;;53.45;34.38;;;21.70;99.90;;;;;;5019044;28;20163;-69
2023/09/12 10:17:47;;;;;;;52.08;31.90;;;21.90;99.90;;;;;;5006113;28;20048;-69
2023/09/12 10:20:20;;;;;;;51.65;33.20;;;21.80;99.90;;;;;;5023773;28;20417;-69
2023/09/12 10:23:20;;;;;;;47.33;32.17;;;21.60;99.90;;;;;;4987942;28;20130;-70
2023/09/12 10:25:48;;;;;;;46.25;31.27;;;22.00;99.90;;;;;;5007290;28;20069;-70
2023/09/12 10:28:14;;;;;;;49.60;32.42;;;21.90;99.90;;;;;;5025725;28;20064;-70
2023/09/12 10:30:41;;;;;;;54.80;34.50;;;21.80;99.90;;;;;;5025945;28;20364;-70
2023/09/12 10:33:08;;;;;;;51.03;33.30;;;22.30;99.90;;;;;;5019990;28;20073;-70
2023/09/12 10:35:35;;;;;;;48.60;32.42;;;22.10;99.90;;;;;;5025309;28;20037;-69
2023/09/12 10:38:05;;;;;;;50.85;31.88;;;22.10;99.90;;;;;;5003155;28;20074;-70
2023/09/12 10:40:32;;;;;;;52.03;32.15;;;22.20;99.90;;;;;;5022166;28;20049;-70
2023/09/12 10:43:00;;;;;;;48.25;31.58;;;22.60;99.90;;;;;;5007220;28;20044;-70
2023/09/12 10:45:27;;;;;;;46.20;29.30;;;22.40;99.90;;;;;;5022660;28;20483;-70
2023/09/12 10:47:52;;;;;;;43.88;28.90;;;22.50;99.90;;;;;;5025745;28;20581;-70
2023/09/12 10:50:20;;;;;;;46.70;29.63;;;22.30;99.90;;;;;;5025325;28;20041;-70
2023/09/12 10:52:45;;;;;;;44.60;28.33;;;22.80;99.90;;;;;;5005948;28;20701;-70
2023/09/12 10:55:19;;;;;;;45.25;29.65;;;22.40;99.90;;;;;;5008296;28;20045;-70
2023/09/12 10:58:14;;;;;;;44.67;28.98;;;22.60;99.90;;;;;;5003214;28;20037;-70
2023/09/12 11:00:40;;;;;;;48.33;30.60;;;23.90;99.90;;;;;;5006261;28;20123;-69
2023/09/12 11:03:27;;;;;;;37.35;26.45;;;22.50;99.90;;;;;;5025129;28;20045;-69
2023/09/12 11:05:55;;;;;;;40.92;30.30;;;22.70;99.90;;;;;;5021801;28;20484;-70
2023/09/12 11:08:20;;;;;;;37.63;26.23;;;22.40;99.90;;;;;;5005731;28;20044;-69
2023/09/12 11:11:22;;;;;;;33.17;24.63;;;22.30;99.90;;;;;;5004138;28;20046;-69
2023/09/12 11:14:06;;;;;;;38.88;26.17;;;22.40;99.90;;;;;;5006729;28;20041;-69
2023/09/12 11:16:32;;;;;;;40.22;27.23;;;23.10;99.90;;;;;;5022710;28;20034;-69
2023/09/12 11:19:23;;;;;;;42.58;28.73;;;22.40;99.90;;;;;;4991516;28;20742;-69
2023/09/12 11:21:57;;;;;;;42.40;27.38;;;22.80;99.90;;;;;;5023133;28;20091;-69
2023/09/12 11:24:23;;;;;;;;;;;22.60;99.90;;;;;;5003050;28;20088;-69
2023/09/12 11:26:59;;;;;;;32.58;22.58;;;22.40;99.90;;;;;;5022214;28;20003;-69
2023/09/12 11:29:37;;;;;;;29.65;21.38;;;24.10;99.90;;;;;;5023190;28;20509;-68
2023/09/12 11:32:03;;;;;;;35.92;23.33;;;22.50;99.90;;;;;;5024139;28;20048;-69
2023/09/12 11:34:42;;;;;;;29.30;21.40;;;22.40;99.90;;;;;;5022100;28;20122;-69
2023/09/12 11:37:07;;;;;;;35.75;24.05;;;22.40;99.90;;;;;;5019873;28;20034;-69
2023/09/12 11:39:35;;;;;;;29.83;20.33;;;22.60;99.90;;;;;;5007004;28;20591;-69
2023/09/12 11:42:01;;;;;;;40.10;22.55;;;22.60;99.90;;;;;;5023104;28;20195;-69
2023/09/12 11:44:28;;;;;;;28.80;20.33;;;22.60;99.90;;;;;;5022717;28;20079;-69
2023/09/12 11:46:54;;;;;;;30.73;19.77;;;22.70;99.90;;;;;;4990017;28;20103;-69
2023/09/12 11:49:20;;;;;;;31.13;20.98;;;22.60;99.90;;;;;;5006511;28;20092;-69
2023/09/12 11:51:50;;;;;;;31.25;19.42;;;22.80;99.90;;;;;;5002112;28;20133;-69
2023/09/12 11:54:25;;;;;;;27.40;17.92;;;22.80;99.90;;;;;;5021707;28;20759;-69
2023/09/12 11:56:56;;;;;;;27.13;18.00;;;22.50;99.90;;;;;;5023714;28;20053;-69
2023/09/12 11:59:26;;;;;;;26.80;18.02;;;24.00;99.90;;;;;;5005748;28;20037;-69
2023/09/12 12:01:52;;;;;;;30.92;17.77;;;22.40;99.90;;;;;;5022577;28;20037;-69
2023/09/12 12:04:21;;;;;;;24.05;17.00;;;22.20;99.90;;;;;;5005411;28;20049;-69
2023/09/12 12:06:46;;;;;;;28.30;17.48;;;22.50;99.90;;;;;;5023188;28;20060;-69
2023/09/12 12:09:13;;;;;;;23.95;16.40;;;23.40;99.90;;;;;;5003785;28;20483;-69
2023/09/12 12:11:39;;;;;;;24.05;15.45;;;22.50;99.90;;;;;;5017812;28;20049;-69
2023/09/12 12:14:16;;;;;;;22.75;15.35;;;22.30;99.90;;;;;;4989280;28;20054;-69
2023/09/12 12:16:42;;;;;;;25.17;17.58;;;22.30;99.90;;;;;;5020664;28;20041;-68
2023/09/12 12:19:09;;;;;;;28.50;19.30;;;22.20;99.90;;;;;;5021213;28;20140;-68
2023/09/12 12:21:35;;;;;;;27.83;19.65;;;22.40;99.90;;;;;;5020763;28;20049;-68
2023/09/12 12:24:02;;;;;;;29.58;20.48;;;22.80;99.90;;;;;;5019309;28;20048;-69
2023/09/12 12:26:28;;;;;;;31.65;20.35;;;22.20;99.90;;;;;;4997599;28;20484;-68
2023/09/12 12:28:54;;;;;;;30.02;18.08;;;23.80;99.90;;;;;;5003212;28;20132;-67
2023/09/12 12:31:21;;;;;;;24.20;16.35;;;22.30;99.90;;;;;;5005717;28;20385;-68
2023/09/12 12:33:54;;;;;;;23.08;16.95;;;22.20;99.90;;;;;;5020205;28;20046;-68
2023/09/12 12:36:20;;;;;;;20.35;14.80;;;22.30;99.90;;;;;;5022448;28;20049;-69
2023/09/12 12:38:47;;;;;;;23.45;14.85;;;22.70;99.90;;;;;;5021808;28;20073;-68
2023/09/12 12:41:25;;;;;;;20.02;13.68;;;22.50;99.90;;;;;;5021820;28;20547;-68
2023/09/12 12:43:52;;;;;;;20.77;13.20;;;22.70;99.90;;;;;;5004947;28;20041;-68
2023/09/12 12:46:27;;;;;;;19.77;12.68;;;22.70;99.90;;;;;;4998271;28;20112;-68
2023/09/12 12:48:53;;;;;;;18.73;11.82;;;22.60;99.90;;;;;;5020028;28;20069;-68
2023/09/12 12:51:25;;;;;;;19.90;11.05;;;23.00;99.90;;;;;;5023187;28;20108;-68
2023/09/12 12:53:53;;;;;;;17.40;11.05;;;22.90;99.90;;;;;;5021684;28;20049;-69
2023/09/12 12:56:22;;;;;;;14.15;10.07;;;23.00;99.90;;;;;;5021461;28;20116;-68